createdAt,value
2018-12-12T00:02:01.322Z,98585.12
2018-12-12T00:04:28.811Z,98575.03
2018-12-12T00:06:56.244Z,98580.50
2018-12-12T00:09:23.653Z,98574.20
2018-12-12T00:11:51.057Z,98575.81
2018-12-12T00:14:18.463Z,98568.30
2018-12-12T00:16:45.873Z,98569.44
2018-12-12T00:19:13.330Z,98569.89
2018-12-12T00:21:40.728Z,98566.90
2018-12-12T00:24:08.130Z,98567.39
2018-12-12T00:26:35.586Z,98565.99
2018-12-12T00:29:03.027Z,98561.57
2018-12-12T00:31:30.437Z,98561.34
2018-12-12T00:33:57.824Z,98565.69
2018-12-12T00:36:25.345Z,98568.98
2018-12-12T00:38:52.740Z,98563.77
2018-12-12T00:41:20.184Z,98560.44
2018-12-12T00:43:47.601Z,98562.89
2018-12-12T00:46:14.997Z,98559.08
2018-12-12T00:48:42.408Z,98563.73
2018-12-12T00:51:09.811Z,98560.44
2018-12-12T00:53:37.211Z,98563.73
2018-12-12T00:56:04.657Z,98562.89
2018-12-12T00:58:32.048Z,98555.30
2018-12-12T01:00:59.459Z,98559.78
2018-12-12T01:03:26.947Z,98561.45
2018-12-12T01:05:54.358Z,98562.17
2018-12-12T01:08:21.752Z,98561.30
2018-12-12T01:10:51.139Z,98563.53
2018-12-12T01:13:18.544Z,98562.51
2018-12-12T01:15:45.944Z,98570.30
2018-12-12T01:18:13.352Z,98565.95
2018-12-12T01:20:40.747Z,98571.09
2018-12-12T01:23:08.161Z,98574.91
2018-12-12T01:25:35.559Z,98577.64
2018-12-12T01:28:03.085Z,98581.95
2018-12-12T01:30:30.483Z,98580.40
2018-12-12T01:32:57.880Z,98576.05
2018-12-12T01:35:25.286Z,98581.72
2018-12-12T01:37:52.691Z,98571.89
2018-12-12T01:40:20.092Z,98566.67
2018-12-12T01:42:47.493Z,98566.82
2018-12-12T01:45:14.942Z,98561.22
2018-12-12T01:47:42.338Z,98569.31
2018-12-12T01:50:09.756Z,98561.45
2018-12-12T01:52:37.757Z,98550.61
2018-12-12T01:55:05.205Z,98557.56
2018-12-12T01:57:32.596Z,98552.95
2018-12-12T02:00:00.001Z,98560.28
2018-12-12T02:02:27.404Z,98558.05
2018-12-12T02:04:54.816Z,98557.64
2018-12-12T02:07:22.204Z,98557.94
2018-12-12T02:09:49.600Z,98551.14
2018-12-12T02:12:16.993Z,98551.41
2018-12-12T02:14:44.395Z,98547.55
2018-12-12T02:17:11.850Z,98550.88
2018-12-12T02:19:39.309Z,98551.84
2018-12-12T02:22:06.772Z,98548.34
2018-12-12T02:24:34.165Z,98557.56
2018-12-12T02:27:01.578Z,98562.70
2018-12-12T02:29:29.020Z,98563.80
2018-12-12T02:31:56.430Z,98561.69
2018-12-12T02:34:23.823Z,98562.89
2018-12-12T02:36:51.221Z,98567.47
2018-12-12T02:39:18.628Z,98565.95
2018-12-12T02:41:46.019Z,98566.86
2018-12-12T02:44:13.429Z,98566.29
2018-12-12T02:46:40.870Z,98566.22
2018-12-12T02:49:08.283Z,98566.18
2018-12-12T02:51:35.681Z,98568.30
2018-12-12T02:54:03.116Z,98563.39
2018-12-12T02:56:30.528Z,98567.30
2018-12-12T02:58:57.924Z,98560.77
2018-12-12T03:01:25.373Z,98561.20
2018-12-12T03:03:53.226Z,98564.41
2018-12-12T03:06:20.619Z,98568.83
2018-12-12T03:08:48.034Z,98571.62
2018-12-12T03:11:17.444Z,98577.86
2018-12-12T03:13:44.857Z,98568.48
2018-12-12T03:16:12.249Z,98573.66
2018-12-12T03:18:39.647Z,98567.95
2018-12-12T03:21:07.056Z,98568.45
2018-12-12T03:23:34.460Z,98571.89
2018-12-12T03:26:01.863Z,98569.89
2018-12-12T03:28:29.546Z,98562.25
2018-12-12T03:30:56.950Z,98563.61
2018-12-12T03:33:24.348Z,98564.67
2018-12-12T03:35:51.761Z,98561.95
2018-12-12T03:38:19.169Z,98554.58
2018-12-12T03:40:46.821Z,98547.73
2018-12-12T03:43:14.219Z,98546.87
2018-12-12T03:45:41.635Z,98547.20
2018-12-12T03:48:09.124Z,98545.27
2018-12-12T03:50:36.525Z,98543.34
2018-12-12T03:53:04.020Z,98539.27
2018-12-12T03:55:31.409Z,98542.22
2018-12-12T03:57:59.100Z,98542.55
2018-12-12T04:00:26.496Z,98542.52
2018-12-12T04:02:53.898Z,98546.64
2018-12-12T04:05:21.313Z,98549.95
2018-12-12T04:07:48.715Z,98546.83
2018-12-12T04:10:16.164Z,98548.08
2018-12-12T04:12:43.604Z,98554.05
2018-12-12T04:15:11.013Z,98551.70
2018-12-12T04:17:38.555Z,98550.84
2018-12-12T04:20:06.247Z,98548.08
2018-12-12T04:22:33.984Z,98552.65
2018-12-12T04:25:01.740Z,98558.92
2018-12-12T04:27:29.145Z,98555.44
2018-12-12T04:29:56.620Z,98559.08
2018-12-12T04:32:24.019Z,98556.62
2018-12-12T04:34:51.419Z,98554.00
2018-12-12T04:37:18.828Z,98560.47
2018-12-12T04:39:46.232Z,98553.06
2018-12-12T04:42:13.715Z,98556.35
2018-12-12T04:44:41.109Z,98560.17
2018-12-12T04:47:08.504Z,98555.56
2018-12-12T04:49:35.918Z,98559.80
2018-12-12T04:52:03.365Z,98556.36
2018-12-12T04:54:30.760Z,98558.02
2018-12-12T04:56:58.170Z,98557.14
2018-12-12T04:59:25.741Z,98554.47
2018-12-12T05:01:53.204Z,98554.20
2018-12-12T05:04:20.732Z,98559.11
2018-12-12T05:06:48.108Z,98561.57
2018-12-12T05:09:15.500Z,98567.09
2018-12-12T05:11:42.959Z,98570.27
2018-12-12T05:16:45.909Z,98570.18
2018-12-12T05:19:13.301Z,98560.45
2018-12-12T05:21:40.721Z,98566.96
2018-12-12T05:24:08.120Z,98571.23
2018-12-12T05:26:35.532Z,98572.53
2018-12-12T05:29:02.937Z,98566.77
2018-12-12T05:31:30.445Z,98572.53
2018-12-12T05:33:57.894Z,98569.98
2018-12-12T05:36:25.334Z,98574.00
2018-12-12T05:38:52.876Z,98567.69
2018-12-12T05:41:20.320Z,98566.16
2018-12-12T05:43:47.716Z,98569.72
2018-12-12T05:46:15.168Z,98569.73
2018-12-12T05:48:42.565Z,98570.53
2018-12-12T05:51:10.021Z,98571.44
2018-12-12T05:53:37.416Z,98569.02
2018-12-12T05:56:04.902Z,98574.05
2018-12-12T05:58:32.294Z,98568.87
2018-12-12T06:00:59.696Z,98570.60
2018-12-12T06:03:27.109Z,98561.76
2018-12-12T06:05:54.512Z,98570.98
2018-12-12T06:08:21.906Z,98572.91
2018-12-12T06:10:49.300Z,98571.55
2018-12-12T06:13:16.781Z,98569.20
2018-12-12T06:15:44.181Z,98567.16
2018-12-12T06:18:11.592Z,98566.09
2018-12-12T06:20:38.993Z,98565.60
2018-12-12T06:23:06.398Z,98562.02
2018-12-12T06:25:33.790Z,98561.14
2018-12-12T06:28:01.191Z,98564.97
2018-12-12T06:30:29.156Z,98562.10
2018-12-12T06:32:56.547Z,98563.00
2018-12-12T06:35:23.941Z,98565.39
2018-12-12T06:37:51.332Z,98560.81
2018-12-12T06:40:18.733Z,98560.28
2018-12-12T06:42:46.141Z,98557.72
2018-12-12T06:45:13.579Z,98565.09
2018-12-12T06:47:40.969Z,98565.95
2018-12-12T06:50:08.412Z,98570.14
2018-12-12T06:52:35.816Z,98566.33
2018-12-12T06:55:03.376Z,98573.55
2018-12-12T06:57:30.773Z,98564.47
2018-12-12T06:59:58.207Z,98567.05
2018-12-12T07:02:25.609Z,98574.34
2018-12-12T07:04:53.058Z,98572.72
2018-12-12T07:07:20.720Z,98572.12
2018-12-12T07:09:48.109Z,98570.04
2018-12-12T07:12:15.544Z,98569.77
2018-12-12T07:14:42.940Z,98575.86
2018-12-12T07:17:10.340Z,98567.76
2018-12-12T07:19:37.782Z,98569.88
2018-12-12T07:22:05.223Z,98572.11
2018-12-12T07:24:32.628Z,98576.22
2018-12-12T07:27:00.051Z,98577.83
2018-12-12T07:29:27.454Z,98582.97
2018-12-12T07:31:54.860Z,98584.13
2018-12-12T07:34:22.274Z,98588.94
2018-12-12T07:36:49.648Z,98584.06
2018-12-12T07:39:18.061Z,98587.01
2018-12-12T07:41:45.772Z,98585.84
2018-12-12T07:44:13.188Z,98586.81
2018-12-12T07:46:40.584Z,98591.47
2018-12-12T07:49:08.021Z,98592.76
2018-12-12T07:51:35.417Z,98589.17
2018-12-12T07:54:02.860Z,98582.99
2018-12-12T07:56:30.272Z,98584.65
2018-12-12T07:58:57.669Z,98582.55
2018-12-12T08:01:25.054Z,98587.69
2018-12-12T08:03:52.601Z,98585.39
2018-12-12T08:06:20.004Z,98586.59
2018-12-12T08:08:47.416Z,98593.58
2018-12-12T08:11:14.819Z,98584.29
2018-12-12T08:13:42.265Z,98587.58
2018-12-12T08:16:09.684Z,98581.11
2018-12-12T08:18:37.229Z,98586.92
2018-12-12T08:21:04.632Z,98582.70
2018-12-12T08:23:32.084Z,98580.40
2018-12-12T08:25:59.544Z,98581.59
2018-12-12T08:28:26.958Z,98587.05
2018-12-12T08:30:54.348Z,98583.80
2018-12-12T08:33:21.742Z,98587.53
2018-12-12T08:35:49.240Z,98585.08
2018-12-12T08:38:16.653Z,98587.96
2018-12-12T08:40:44.085Z,98588.52
2018-12-12T08:43:11.492Z,98586.25
2018-12-12T08:45:38.897Z,98593.73
2018-12-12T08:48:06.297Z,98591.60
2018-12-12T08:50:33.703Z,98590.77
2018-12-12T08:53:01.112Z,98594.33
2018-12-12T08:55:28.528Z,98598.03
2018-12-12T08:57:55.921Z,98600.91
2018-12-12T09:00:23.405Z,98591.40
2018-12-12T09:02:50.816Z,98603.89
2018-12-12T09:05:18.283Z,98598.69
2018-12-12T09:07:45.683Z,98601.00
2018-12-12T09:10:13.069Z,98602.52
2018-12-12T09:12:40.508Z,98602.92
2018-12-12T09:15:08.014Z,98612.00
2018-12-12T09:17:35.433Z,98617.03
2018-12-12T09:20:03.549Z,98616.41
2018-12-12T09:22:30.945Z,98622.36
2018-12-12T09:24:58.340Z,98624.75
2018-12-12T09:27:25.753Z,98623.87
2018-12-12T09:29:53.158Z,98620.51
2018-12-12T09:32:20.600Z,98617.17
2018-12-12T09:34:48.000Z,98616.34
2018-12-12T09:37:15.397Z,98612.72
2018-12-12T09:39:42.815Z,98607.31
2018-12-12T09:42:10.212Z,98615.95
2018-12-12T09:44:37.608Z,98612.64
2018-12-12T09:47:05.122Z,98606.64
2018-12-12T09:49:32.532Z,98613.92
2018-12-12T09:51:59.923Z,98609.04
2018-12-12T09:54:27.326Z,98606.45
2018-12-12T09:56:54.725Z,98611.01
2018-12-12T09:59:22.141Z,98612.03
2018-12-12T10:01:49.541Z,98611.02
2018-12-12T10:04:16.942Z,98605.08
2018-12-12T10:06:44.327Z,98599.56
2018-12-12T10:09:11.735Z,98594.19
2018-12-12T10:11:39.144Z,98600.10
2018-12-12T10:14:06.545Z,98596.77
2018-12-12T10:16:33.991Z,98603.09
2018-12-12T10:19:01.385Z,98599.89
2018-12-12T10:21:28.874Z,98604.59
2018-12-12T10:23:56.277Z,98602.08
2018-12-12T10:26:23.694Z,98598.13
2018-12-12T10:28:51.168Z,98602.80
2018-12-12T10:31:18.572Z,98597.33
2018-12-12T10:33:45.969Z,98601.14
2018-12-12T10:36:13.380Z,98589.74
2018-12-12T10:38:40.775Z,98586.66
2018-12-12T10:41:08.185Z,98582.94
2018-12-12T10:43:36.488Z,98584.80
2018-12-12T10:46:03.959Z,98583.52
2018-12-12T10:48:31.356Z,98580.33
2018-12-12T10:50:58.774Z,98580.63
2018-12-12T10:53:26.172Z,98583.34
2018-12-12T10:55:53.576Z,98573.52
2018-12-12T10:58:20.990Z,98573.22
2018-12-12T11:03:59.618Z,98572.61
2018-12-12T11:06:27.016Z,98570.39
2018-12-12T11:08:54.434Z,98573.62
2018-12-12T11:11:21.834Z,98562.84
2018-12-12T11:13:49.271Z,98560.89
2018-12-12T11:16:16.679Z,98556.17
2018-12-12T11:18:44.181Z,98559.19
2018-12-12T11:21:11.651Z,98559.67
2018-12-12T11:23:39.049Z,98556.39
2018-12-12T11:26:06.534Z,98554.06
2018-12-12T11:28:33.925Z,98551.45
2018-12-12T11:31:03.388Z,98547.91
2018-12-12T11:33:30.960Z,98541.66
2018-12-12T11:35:58.353Z,98544.89
2018-12-12T11:38:25.773Z,98540.26
2018-12-12T11:40:53.168Z,98532.89
2018-12-12T11:43:20.724Z,98532.82
2018-12-12T11:45:48.133Z,98526.05
2018-12-12T11:48:15.577Z,98528.95
2018-12-12T11:50:42.996Z,98527.01
2018-12-12T11:53:10.392Z,98519.02
2018-12-12T11:55:37.789Z,98526.80
2018-12-12T11:58:05.200Z,98516.05
2018-12-12T12:00:32.640Z,98510.19
2018-12-12T12:03:00.056Z,98511.79
2018-12-12T12:05:27.455Z,98509.06
2018-12-12T12:07:54.909Z,98505.02
2018-12-12T12:10:22.311Z,98499.56
2018-12-12T12:12:50.626Z,98505.79
2018-12-12T12:15:18.025Z,98498.73
2018-12-12T12:17:45.433Z,98499.47
2018-12-12T12:20:12.881Z,98494.40
2018-12-12T12:22:40.280Z,98487.28
2018-12-12T12:25:07.859Z,98499.32
2018-12-12T12:27:35.269Z,98494.98
2018-12-12T12:30:02.820Z,98493.84
2018-12-12T12:32:30.224Z,98492.53
2018-12-12T12:34:57.641Z,98494.42
2018-12-12T12:37:25.045Z,98491.41
2018-12-12T12:39:52.441Z,98488.70
2018-12-12T12:42:19.853Z,98485.69
2018-12-12T12:44:47.309Z,98486.21
2018-12-12T12:47:14.717Z,98483.77
2018-12-12T12:49:42.128Z,98479.91
2018-12-12T12:52:09.529Z,98482.05
2018-12-12T12:54:36.948Z,98485.60
2018-12-12T12:57:04.374Z,98472.98
2018-12-12T12:59:31.778Z,98473.37
2018-12-12T13:01:59.190Z,98471.72
2018-12-12T13:04:26.609Z,98469.80
2018-12-12T13:06:54.017Z,98468.13
2018-12-12T13:09:21.424Z,98464.06
2018-12-12T13:11:48.874Z,98465.47
2018-12-12T13:14:16.401Z,98460.24
2018-12-12T13:16:43.968Z,98459.70
2018-12-12T13:19:11.389Z,98459.20
2018-12-12T13:21:39.394Z,98457.01
2018-12-12T13:24:06.899Z,98451.52
2018-12-12T13:26:34.408Z,98448.31
2018-12-12T13:29:01.800Z,98448.01
2018-12-12T13:31:29.204Z,98455.66
2018-12-12T13:33:56.670Z,98453.73
2018-12-12T13:36:24.060Z,98453.73
2018-12-12T13:38:51.516Z,98448.78
2018-12-12T13:41:18.935Z,98446.03
2018-12-12T13:43:46.327Z,98439.28
2018-12-12T13:46:13.732Z,98444.66
2018-12-12T13:48:41.165Z,98440.80
2018-12-12T13:51:08.607Z,98439.48
2018-12-12T13:53:36.008Z,98440.04
2018-12-12T13:56:03.421Z,98437.03
2018-12-12T13:58:30.944Z,98442.51
2018-12-12T14:00:58.352Z,98442.73
2018-12-12T14:03:25.803Z,98439.78
2018-12-12T14:05:53.206Z,98439.48
2018-12-12T14:08:20.604Z,98434.02
2018-12-12T14:10:48.017Z,98434.01
2018-12-12T14:13:15.417Z,98435.08
2018-12-12T14:15:42.812Z,98439.13
2018-12-12T14:18:10.285Z,98438.83
2018-12-12T14:20:37.690Z,98433.11
2018-12-12T14:23:05.141Z,98428.74
2018-12-12T14:25:32.560Z,98437.22
2018-12-12T14:27:59.956Z,98433.89
2018-12-12T14:30:28.269Z,98431.18
2018-12-12T14:32:55.700Z,98427.11
2018-12-12T14:35:23.096Z,98423.54
2018-12-12T14:37:50.493Z,98431.73
2018-12-12T14:40:17.911Z,98429.58
2018-12-12T14:42:45.300Z,98425.00
2018-12-12T14:45:12.740Z,98425.02
2018-12-12T14:47:40.152Z,98422.27
2018-12-12T14:50:07.647Z,98423.87
2018-12-12T14:52:35.045Z,98428.46
2018-12-12T14:55:02.457Z,98428.70
2018-12-12T14:57:29.859Z,98421.67
2018-12-12T14:59:57.254Z,98421.14
2018-12-12T15:02:24.673Z,98427.39
2018-12-12T15:04:52.081Z,98428.16
2018-12-12T15:07:19.478Z,98423.33
2018-12-12T15:09:46.900Z,98424.13
2018-12-12T15:12:14.294Z,98425.20
2018-12-12T15:14:41.749Z,98417.00
2018-12-12T15:17:09.179Z,98412.97
2018-12-12T15:19:36.552Z,98412.12
2018-12-12T15:22:04.204Z,98415.09
2018-12-12T15:24:31.628Z,98407.44
2018-12-12T15:26:59.046Z,98416.43
2018-12-12T15:29:26.444Z,98418.08
2018-12-12T15:31:53.838Z,98414.01
2018-12-12T15:34:21.248Z,98415.33
2018-12-12T15:36:48.728Z,98415.63
2018-12-12T15:39:16.120Z,98416.46
2018-12-12T15:41:43.663Z,98417.29
2018-12-12T15:44:11.065Z,98415.36
2018-12-12T15:46:38.475Z,98419.92
2018-12-12T15:49:05.886Z,98425.67
2018-12-12T15:51:33.329Z,98417.25
2018-12-12T15:54:00.740Z,98416.03
2018-12-12T15:56:28.140Z,98420.16
2018-12-12T15:58:55.536Z,98419.02
2018-12-12T16:01:22.953Z,98421.53
2018-12-12T16:03:50.350Z,98416.29
2018-12-12T16:06:17.801Z,98410.09
2018-12-12T16:08:45.220Z,98413.58
2018-12-12T16:11:12.620Z,98415.00
2018-12-12T16:13:40.015Z,98418.55
2018-12-12T16:16:09.353Z,98414.13
2018-12-12T16:18:36.763Z,98416.30
2018-12-12T16:21:04.201Z,98412.77
2018-12-12T16:23:31.608Z,98413.27
2018-12-12T16:25:59.006Z,98409.50
2018-12-12T16:28:26.404Z,98412.27
2018-12-12T16:30:53.816Z,98415.19
2018-12-12T16:33:21.224Z,98415.73
2018-12-12T16:35:48.696Z,98411.38
2018-12-12T16:38:16.116Z,98407.37
2018-12-12T16:40:43.566Z,98405.98
2018-12-12T16:43:10.964Z,98403.25
2018-12-12T16:45:38.378Z,98406.80
2018-12-12T16:48:05.834Z,98405.16
2018-12-12T16:50:33.237Z,98408.47
2018-12-12T16:53:00.652Z,98406.73
2018-12-12T16:55:28.044Z,98404.66
2018-12-12T16:57:55.437Z,98402.16
2018-12-12T17:00:22.865Z,98401.06
2018-12-12T17:02:50.276Z,98394.23
2018-12-12T17:05:17.732Z,98394.78
2018-12-12T17:07:45.140Z,98392.92
2018-12-12T17:10:12.669Z,98388.89
2018-12-12T17:12:40.896Z,98392.16
2018-12-12T17:15:08.404Z,98386.97
2018-12-12T17:17:35.848Z,98388.33
2018-12-12T17:20:04.050Z,98383.68
2018-12-12T17:22:31.477Z,98391.89
2018-12-12T17:24:58.877Z,98383.16
2018-12-12T17:27:26.274Z,98386.98
2018-12-12T17:29:53.684Z,98384.77
2018-12-12T17:32:21.087Z,98387.48
2018-12-12T17:34:48.488Z,98385.06
2018-12-12T17:37:15.908Z,98388.89
2018-12-12T17:39:43.301Z,98382.85
2018-12-12T17:42:10.722Z,98383.45
2018-12-12T17:44:38.121Z,98388.51
2018-12-12T17:47:05.535Z,98382.57
2018-12-12T17:49:32.930Z,98378.17
2018-12-12T17:52:00.325Z,98376.83
2018-12-12T17:54:27.735Z,98381.70
2018-12-12T17:56:55.136Z,98381.73
2018-12-12T17:59:22.539Z,98381.16
2018-12-12T18:01:49.988Z,98381.19
2018-12-12T18:04:17.464Z,98380.32
2018-12-12T18:06:44.860Z,98376.26
2018-12-12T18:09:12.318Z,98374.91
2018-12-12T18:11:39.711Z,98379.24
2018-12-12T18:14:07.116Z,98378.69
2018-12-12T18:16:34.531Z,98371.87
2018-12-12T18:19:01.924Z,98377.36
2018-12-12T18:21:29.321Z,98375.69
2018-12-12T18:23:56.734Z,98379.27
2018-12-12T18:26:24.129Z,98386.34
2018-12-12T18:28:51.530Z,98374.36
2018-12-12T18:31:18.940Z,98379.75
2018-12-12T18:33:46.337Z,98371.27
2018-12-12T18:36:13.736Z,98375.13
2018-12-12T18:38:41.144Z,98377.83
2018-12-12T18:41:08.638Z,98370.77
2018-12-12T18:43:36.079Z,98374.55
2018-12-12T18:46:03.525Z,98369.69
2018-12-12T18:48:30.918Z,98366.72
2018-12-12T18:50:58.346Z,98371.00
2018-12-12T18:53:25.721Z,98368.61
2018-12-12T18:55:53.130Z,98377.05
2018-12-12T18:58:20.540Z,98369.42
2018-12-12T19:00:47.932Z,98377.56
2018-12-12T19:03:15.330Z,98376.48
2018-12-12T19:05:42.875Z,98366.36
2018-12-12T19:08:10.332Z,98369.39
2018-12-12T19:10:37.739Z,98372.39
2018-12-12T19:13:05.191Z,98371.33
2018-12-12T19:15:32.647Z,98376.77
2018-12-12T19:18:00.131Z,98378.10
2018-12-12T19:20:27.611Z,98376.97
2018-12-12T19:22:55.004Z,98375.84
2018-12-12T19:25:22.406Z,98372.30
2018-12-12T19:27:49.814Z,98373.42
2018-12-12T19:30:17.223Z,98372.30
2018-12-12T19:32:44.670Z,98369.56
2018-12-12T19:35:12.087Z,98367.35
2018-12-12T19:37:39.533Z,98367.40
2018-12-12T19:40:07.372Z,98366.86
2018-12-12T19:42:34.787Z,98365.45
2018-12-12T19:45:02.278Z,98359.95
2018-12-12T19:47:29.769Z,98362.11
2018-12-12T19:49:57.184Z,98346.80
2018-12-12T19:52:24.642Z,98354.67
2018-12-12T19:54:52.084Z,98359.58
2018-12-12T19:57:19.505Z,98355.77
2018-12-12T19:59:47.003Z,98356.52
2018-12-12T20:02:14.466Z,98351.58
2018-12-12T20:04:41.906Z,98352.41
2018-12-12T20:07:09.347Z,98353.16
2018-12-12T20:09:37.839Z,98355.81
2018-12-12T20:12:05.248Z,98350.67
2018-12-12T20:14:32.665Z,98347.66
2018-12-12T20:17:00.053Z,98344.61
2018-12-12T20:19:27.630Z,98348.16
2018-12-12T20:21:55.269Z,98339.37
2018-12-12T20:24:22.749Z,98339.44
2018-12-12T20:26:50.233Z,98334.59
2018-12-12T20:29:17.680Z,98337.48
2018-12-12T20:31:45.208Z,98334.50
2018-12-12T20:34:12.682Z,98333.08
2018-12-12T20:36:40.110Z,98332.48
2018-12-12T20:39:07.649Z,98328.64
2018-12-12T20:41:35.064Z,98326.16
2018-12-12T20:44:02.513Z,98326.52
2018-12-12T20:46:29.940Z,98324.25
2018-12-12T20:48:57.447Z,98322.88
2018-12-12T20:51:24.836Z,98325.33
2018-12-12T20:53:52.266Z,98324.24
2018-12-12T20:56:19.678Z,98322.91
2018-12-12T20:58:47.062Z,98325.63
2018-12-12T21:01:14.479Z,98319.66
2018-12-12T21:03:41.892Z,98323.17
2018-12-12T21:06:09.321Z,98319.16
2018-12-12T21:08:36.740Z,98315.07
2018-12-12T21:11:04.132Z,98313.95
2018-12-12T21:13:31.545Z,98311.47
2018-12-12T21:15:58.950Z,98313.17
2018-12-12T21:18:26.360Z,98312.88
2018-12-12T21:20:53.756Z,98300.11
2018-12-12T21:23:21.183Z,98298.70
2018-12-12T21:25:48.965Z,98295.20
2018-12-12T21:28:16.349Z,98296.30
2018-12-12T21:30:43.761Z,98297.92
2018-12-12T21:33:11.152Z,98294.05
2018-12-12T21:35:38.557Z,98299.73
2018-12-12T21:38:06.017Z,98294.33
2018-12-12T21:40:33.405Z,98306.75
2018-12-12T21:43:00.823Z,98300.78
2018-12-12T21:45:28.437Z,98300.52
2018-12-12T21:47:55.886Z,98294.75
2018-12-12T21:50:23.328Z,98300.72
2018-12-12T21:52:50.753Z,98289.58
2018-12-12T21:55:18.168Z,98293.36
2018-12-12T21:57:45.564Z,98294.16
2018-12-12T22:00:13.023Z,98287.89
2018-12-12T22:02:40.441Z,98284.61
2018-12-12T22:05:07.944Z,98286.73
2018-12-12T22:07:35.417Z,98287.59
2018-12-12T22:10:02.990Z,98289.48
2018-12-12T22:12:30.385Z,98294.39
2018-12-12T22:14:57.796Z,98283.28
2018-12-12T22:17:26.098Z,98290.70
2018-12-12T22:19:53.488Z,98287.45
2018-12-12T22:22:20.901Z,98283.05
2018-12-12T22:24:48.305Z,98281.62
2018-12-12T22:27:15.700Z,98281.09
2018-12-12T22:29:43.117Z,98285.37
2018-12-12T22:32:10.516Z,98281.01
2018-12-12T22:34:37.928Z,98278.49
2018-12-12T22:37:05.338Z,98274.12
2018-12-12T22:39:32.731Z,98264.18
2018-12-12T22:42:00.132Z,98268.52
2018-12-12T22:44:27.536Z,98274.25
2018-12-12T22:46:54.970Z,98270.70
2018-12-12T22:49:22.469Z,98274.71
2018-12-12T22:51:49.887Z,98274.14
2018-12-12T22:54:17.422Z,98274.11
2018-12-12T22:56:44.866Z,98273.43
2018-12-12T22:59:12.276Z,98265.81
2018-12-12T23:01:39.670Z,98269.51
2018-12-12T23:04:07.071Z,98267.62
2018-12-12T23:06:34.484Z,98264.08
2018-12-12T23:09:01.892Z,98267.19
2018-12-12T23:11:29.371Z,98271.27
2018-12-12T23:13:56.859Z,98267.38
2018-12-12T23:16:24.259Z,98266.05
2018-12-12T23:18:51.680Z,98260.37
2018-12-12T23:21:19.098Z,98264.18
2018-12-12T23:23:46.484Z,98257.56
2018-12-12T23:26:13.893Z,98258.52
2018-12-12T23:28:41.305Z,98255.59
2018-12-12T23:31:08.699Z,98255.02
2018-12-12T23:33:36.154Z,98251.78
2018-12-12T23:36:03.566Z,98257.25
2018-12-12T23:38:30.965Z,98249.09
2018-12-12T23:40:58.453Z,98249.63
2018-12-12T23:43:25.860Z,98244.20
2018-12-12T23:45:53.250Z,98240.13
2018-12-12T23:48:20.642Z,98246.99
2018-12-12T23:50:48.053Z,98230.73
2018-12-12T23:53:15.457Z,98240.66
2018-12-12T23:55:42.860Z,98234.20
2018-12-12T23:58:10.270Z,98234.36
